sensor_id;sensor_type;location;lat;lon;timestamp;pressure;altitude;pressure_sealevel;temperature;humidity
16821;BME280;8527;49.740;6.604;2023-10-31T00:02:27;98164.84;;;11.26;100.00
16821;BME280;8527;49.740;6.604;2023-10-31T00:07:25;98171.19;;;11.18;100.00
16821;BME280;8527;49.740;6.604;2023-10-31T00:12:27;98171.19;;;11.18;100.00
16821;BME280;8527;49.740;6.604;2023-10-31T00:17:28;98166.56;;;11.14;100.00
16821;BME280;8527;49.740;6.604;2023-10-31T00:22:26;98176.97;;;11.08;100.00
16821;BME280;8527;49.740;6.604;2023-10-31T00:27:27;98183.53;;;10.99;100.00
16821;BME280;8527;49.740;6.604;2023-10-31T00:32:29;98177.81;;;11.02;100.00
16821;BME280;8527;49.740;6.604;2023-10-31T00:37:27;98179.84;;;11.07;100.00
16821;BME280;8527;49.740;6.604;2023-10-31T00:42:28;98175.97;;;11.03;100.00
16821;BME280;8527;49.740;6.604;2023-10-31T00:47:27;98173.91;;;11.05;100.00
16821;BME280;8527;49.740;6.604;2023-10-31T00:52:28;98172.28;;;11.04;100.00
16821;BME280;8527;49.740;6.604;2023-10-31T00:57:29;98177.81;;;11.09;100.00
16821;BME280;8527;49.740;6.604;2023-10-31T01:02:34;98172.72;;;11.01;100.00
16821;BME280;8527;49.740;6.604;2023-10-31T01:07:33;98167.63;;;10.92;100.00
16821;BME280;8527;49.740;6.604;2023-10-31T01:12:34;98174.84;;;10.78;100.00
16821;BME280;8527;49.740;6.604;2023-10-31T01:17:35;98180.56;;;10.82;100.00
16821;BME280;8527;49.740;6.604;2023-10-31T01:22:37;98176.06;;;10.82;100.00
16821;BME280;8527;49.740;6.604;2023-10-31T01:27:40;98185.88;;;10.75;100.00
16821;BME280;8527;49.740;6.604;2023-10-31T01:32:39;98187.09;;;10.79;100.00
16821;BME280;8527;49.740;6.604;2023-10-31T01:37:38;98189.13;;;10.84;100.00
16821;BME280;8527;49.740;6.604;2023-10-31T01:42:43;98190.75;;;10.85;100.00
16821;BME280;8527;49.740;6.604;2023-10-31T01:47:43;98193.56;;;10.90;100.00
16821;BME280;8527;49.740;6.604;2023-10-31T01:52:43;98198.47;;;10.87;100.00
16821;BME280;8527;49.740;6.604;2023-10-31T01:57:48;98196.22;;;10.90;100.00
16821;BME280;8527;49.740;6.604;2023-10-31T02:02:47;98203.41;;;10.83;100.00
16821;BME280;8527;49.740;6.604;2023-10-31T02:07:47;98201.94;;;10.94;100.00
16821;BME280;8527;49.740;6.604;2023-10-31T02:12:48;98204.81;;;10.79;100.00
16821;BME280;8527;49.740;6.604;2023-10-31T02:17:56;98210.34;;;10.84;100.00
16821;BME280;8527;49.740;6.604;2023-10-31T02:23:00;98200.94;;;10.81;100.00
16821;BME280;8527;49.740;6.604;2023-10-31T02:28:00;98210.13;;;10.79;100.00
16821;BME280;8527;49.740;6.604;2023-10-31T02:32:58;98215.06;;;10.75;100.00
16821;BME280;8527;49.740;6.604;2023-10-31T02:38:00;98214.84;;;10.70;100.00
16821;BME280;8527;49.740;6.604;2023-10-31T02:43:02;98208.53;;;10.71;100.00
16821;BME280;8527;49.740;6.604;2023-10-31T02:48:00;98223.63;;;10.77;100.00
16821;BME280;8527;49.740;6.604;2023-10-31T02:53:05;98226.28;;;10.77;100.00
16821;BME280;8527;49.740;6.604;2023-10-31T02:58:11;98238.94;;;10.75;100.00
16821;BME280;8527;49.740;6.604;2023-10-31T03:03:21;98236.88;;;10.77;100.00
16821;BME280;8527;49.740;6.604;2023-10-31T03:08:32;98238.13;;;10.68;100.00
16821;BME280;8527;49.740;6.604;2023-10-31T03:13:36;98248.72;;;10.68;100.00
16821;BME280;8527;49.740;6.604;2023-10-31T03:18:38;98253.03;;;10.62;100.00
16821;BME280;8527;49.740;6.604;2023-10-31T03:23:39;98239.16;;;10.60;100.00
16821;BME280;8527;49.740;6.604;2023-10-31T03:28:38;98245.69;;;10.58;100.00
16821;BME280;8527;49.740;6.604;2023-10-31T03:33:37;98255.06;;;10.53;100.00
16821;BME280;8527;49.740;6.604;2023-10-31T03:38:44;98254.25;;;10.46;100.00
16821;BME280;8527;49.740;6.604;2023-10-31T03:43:48;98258.50;;;10.40;100.00
16821;BME280;8527;49.740;6.604;2023-10-31T03:48:54;98274.03;;;10.37;100.00
16821;BME280;8527;49.740;6.604;2023-10-31T03:53:55;98276.72;;;10.44;100.00
16821;BME280;8527;49.740;6.604;2023-10-31T03:58:54;98284.22;;;10.40;100.00
16821;BME280;8527;49.740;6.604;2023-10-31T04:03:52;98287.47;;;10.35;100.00
16821;BME280;8527;49.740;6.604;2023-10-31T04:08:50;98280.97;;;10.38;100.00
16821;BME280;8527;49.740;6.604;2023-10-31T04:13:53;98291.19;;;10.41;100.00
16821;BME280;8527;49.740;6.604;2023-10-31T04:18:55;98296.06;;;10.44;100.00
16821;BME280;8527;49.740;6.604;2023-10-31T04:24:00;98297.91;;;10.44;100.00
16821;BME280;8527;49.740;6.604;2023-10-31T04:29:04;98307.47;;;10.38;100.00
16821;BME280;8527;49.740;6.604;2023-10-31T04:34:05;98309.13;;;10.46;100.00
16821;BME280;8527;49.740;6.604;2023-10-31T04:39:03;98309.28;;;10.37;100.00
16821;BME280;8527;49.740;6.604;2023-10-31T04:44:17;98319.47;;;10.34;100.00
16821;BME280;8527;49.740;6.604;2023-10-31T04:49:15;98319.69;;;10.32;100.00
16821;BME280;8527;49.740;6.604;2023-10-31T04:54:13;98319.47;;;10.27;100.00
16821;BME280;8527;49.740;6.604;2023-10-31T04:59:14;98320.50;;;10.26;100.00
16821;BME280;8527;49.740;6.604;2023-10-31T05:04:16;98330.06;;;10.27;100.00
16821;BME280;8527;49.740;6.604;2023-10-31T05:09:15;98343.31;;;10.27;100.00
16821;BME280;8527;49.740;6.604;2023-10-31T05:14:21;98349.22;;;10.22;100.00
16821;BME280;8527;49.740;6.604;2023-10-31T05:19:19;98345.78;;;10.22;100.00
16821;BME280;8527;49.740;6.604;2023-10-31T05:24:19;98353.50;;;10.23;100.00
16821;BME280;8527;49.740;6.604;2023-10-31T05:29:22;98355.34;;;10.23;100.00
16821;BME280;8527;49.740;6.604;2023-10-31T05:34:26;98363.72;;;10.20;100.00
16821;BME280;8527;49.740;6.604;2023-10-31T05:39:28;98369.03;;;10.26;100.00
16821;BME280;8527;49.740;6.604;2023-10-31T05:44:29;98372.69;;;10.25;100.00
16821;BME280;8527;49.740;6.604;2023-10-31T05:49:27;98377.78;;;10.27;100.00
16821;BME280;8527;49.740;6.604;2023-10-31T05:54:25;98381.03;;;10.29;100.00
16821;BME280;8527;49.740;6.604;2023-10-31T05:59:24;98372.06;;;10.23;100.00
16821;BME280;8527;49.740;6.604;2023-10-31T06:04:25;98391.03;;;10.20;100.00
16821;BME280;8527;49.740;6.604;2023-10-31T06:09:24;98388.78;;;10.24;100.00
16821;BME280;8527;49.740;6.604;2023-10-31T06:14:25;98394.09;;;10.17;100.00
16821;BME280;8527;49.740;6.604;2023-10-31T06:19:26;98399.19;;;10.19;100.00
16821;BME280;8527;49.740;6.604;2023-10-31T06:24:24;98416.72;;;10.20;100.00
16821;BME280;8527;49.740;6.604;2023-10-31T06:29:23;98421.41;;;10.18;100.00
16821;BME280;8527;49.740;6.604;2023-10-31T06:34:26;98435.88;;;10.22;100.00
16821;BME280;8527;49.740;6.604;2023-10-31T06:39:28;98448.53;;;10.20;100.00
16821;BME280;8527;49.740;6.604;2023-10-31T06:44:26;98449.34;;;10.27;100.00
16821;BME280;8527;49.740;6.604;2023-10-31T06:49:27;98470.16;;;10.30;100.00
16821;BME280;8527;49.740;6.604;2023-10-31T06:54:28;98474.66;;;10.30;100.00
16821;BME280;8527;49.740;6.604;2023-10-31T06:59:27;98486.47;;;10.27;100.00
16821;BME280;8527;49.740;6.604;2023-10-31T07:04:29;98500.56;;;10.34;100.00
16821;BME280;8527;49.740;6.604;2023-10-31T07:09:32;98498.59;;;10.43;100.00
16821;BME280;8527;49.740;6.604;2023-10-31T07:14:31;98513.88;;;10.41;100.00
16821;BME280;8527;49.740;6.604;2023-10-31T07:19:32;98522.41;;;10.36;100.00
16821;BME280;8527;49.740;6.604;2023-10-31T07:24:30;98523.56;;;10.27;100.00
16821;BME280;8527;49.740;6.604;2023-10-31T07:29:29;98538.28;;;10.30;100.00
16821;BME280;8527;49.740;6.604;2023-10-31T07:34:33;98533.19;;;10.35;100.00
16821;BME280;8527;49.740;6.604;2023-10-31T07:39:34;98538.53;;;10.41;100.00
16821;BME280;8527;49.740;6.604;2023-10-31T07:44:32;98544.63;;;10.35;100.00
16821;BME280;8527;49.740;6.604;2023-10-31T07:49:33;98556.78;;;10.58;100.00
16821;BME280;8527;49.740;6.604;2023-10-31T07:54:35;98564.91;;;10.50;100.00
16821;BME280;8527;49.740;6.604;2023-10-31T07:59:33;98565.75;;;10.57;100.00
16821;BME280;8527;49.740;6.604;2023-10-31T08:04:34;98571.28;;;10.69;100.00
16821;BME280;8527;49.740;6.604;2023-10-31T08:09:32;98573.75;;;10.71;100.00
16821;BME280;8527;49.740;6.604;2023-10-31T08:14:31;98575.59;;;10.77;100.00
16821;BME280;8527;49.740;6.604;2023-10-31T08:19:34;98581.34;;;10.87;100.00
16821;BME280;8527;49.740;6.604;2023-10-31T08:24:34;98589.94;;;10.89;100.00
16821;BME280;8527;49.740;6.604;2023-10-31T08:29:35;98587.72;;;11.00;100.00
16821;BME280;8527;49.740;6.604;2023-10-31T08:34:36;98591.59;;;11.04;100.00
16821;BME280;8527;49.740;6.604;2023-10-31T08:39:38;98598.34;;;11.06;100.00
16821;BME280;8527;49.740;6.604;2023-10-31T08:44:36;98606.94;;;11.15;100.00
16821;BME280;8527;49.740;6.604;2023-10-31T08:49:40;98616.78;;;11.21;100.00
16821;BME280;8527;49.740;6.604;2023-10-31T08:54:38;98624.31;;;11.24;100.00
16821;BME280;8527;49.740;6.604;2023-10-31T08:59:37;98630.88;;;11.29;100.00
16821;BME280;8527;49.740;6.604;2023-10-31T09:04:36;98646.00;;;11.35;100.00
16821;BME280;8527;49.740;6.604;2023-10-31T09:09:37;98640.31;;;11.51;100.00
16821;BME280;8527;49.740;6.604;2023-10-31T09:14:35;98646.03;;;11.55;100.00
16821;BME280;8527;49.740;6.604;2023-10-31T09:19:37;98652.41;;;11.74;99.18
16821;BME280;8527;49.740;6.604;2023-10-31T09:24:37;98655.06;;;11.88;97.49
16821;BME280;8527;49.740;6.604;2023-10-31T09:29:38;98647.81;;;12.62;95.89
16821;BME280;8527;49.740;6.604;2023-10-31T09:34:37;98652.19;;;13.02;91.99
16821;BME280;8527;49.740;6.604;2023-10-31T09:39:38;98660.84;;;12.91;89.87
16821;BME280;8527;49.740;6.604;2023-10-31T09:44:39;98672.28;;;13.37;88.27
16821;BME280;8527;49.740;6.604;2023-10-31T09:49:40;98675.69;;;13.51;86.16
16821;BME280;8527;49.740;6.604;2023-10-31T09:54:41;98672.63;;;13.54;86.87
16821;BME280;8527;49.740;6.604;2023-10-31T09:59:43;98672.44;;;14.06;84.32
16821;BME280;8527;49.740;6.604;2023-10-31T10:04:41;98683.69;;;14.09;83.59
16821;BME280;8527;49.740;6.604;2023-10-31T10:09:43;98680.91;;;13.71;84.16
16821;BME280;8527;49.740;6.604;2023-10-31T10:14:45;98682.81;;;13.64;86.45
16821;BME280;8527;49.740;6.604;2023-10-31T10:19:44;98683.50;;;13.53;85.46
16821;BME280;8527;49.740;6.604;2023-10-31T10:24:45;98680.22;;;13.50;85.82
16821;BME280;8527;49.740;6.604;2023-10-31T10:29:43;98684.19;;;13.34;85.29
16821;BME280;8527;49.740;6.604;2023-10-31T10:34:42;98690.78;;;13.25;86.68
16821;BME280;8527;49.740;6.604;2023-10-31T10:39:47;98688.13;;;14.21;83.63
16821;BME280;8527;49.740;6.604;2023-10-31T10:44:49;98696.88;;;14.29;83.13
16821;BME280;8527;49.740;6.604;2023-10-31T10:49:52;98692.47;;;14.16;83.26
16821;BME280;8527;49.740;6.604;2023-10-31T10:55:01;98698.72;;;14.03;83.89
16821;BME280;8527;49.740;6.604;2023-10-31T11:00:04;98699.22;;;13.93;84.58
16821;BME280;8527;49.740;6.604;2023-10-31T11:05:08;98692.44;;;13.97;84.89
16821;BME280;8527;49.740;6.604;2023-10-31T11:10:10;98694.28;;;13.97;84.18
16821;BME280;8527;49.740;6.604;2023-10-31T11:15:10;98694.13;;;13.91;85.97
16821;BME280;8527;49.740;6.604;2023-10-31T11:20:11;98693.06;;;13.92;85.88
16821;BME280;8527;49.740;6.604;2023-10-31T11:25:15;98691.34;;;14.05;85.95
16821;BME280;8527;49.740;6.604;2023-10-31T11:30:28;98691.38;;;14.24;84.81
16821;BME280;8527;49.740;6.604;2023-10-31T11:35:29;98688.97;;;14.15;85.98
16821;BME280;8527;49.740;6.604;2023-10-31T11:40:30;98683.59;;;14.22;84.06
16821;BME280;8527;49.740;6.604;2023-10-31T11:45:34;98678.34;;;14.34;83.46
16821;BME280;8527;49.740;6.604;2023-10-31T11:50:33;98689.91;;;14.28;84.24
16821;BME280;8527;49.740;6.604;2023-10-31T11:55:41;98685.56;;;14.08;84.86
16821;BME280;8527;49.740;6.604;2023-10-31T12:00:39;98683.81;;;14.20;84.76
16821;BME280;8527;49.740;6.604;2023-10-31T12:05:38;98682.00;;;14.14;84.74
16821;BME280;8527;49.740;6.604;2023-10-31T12:10:42;98685.31;;;14.35;85.08
16821;BME280;8527;49.740;6.604;2023-10-31T12:15:51;98680.25;;;14.52;83.34
16821;BME280;8527;49.740;6.604;2023-10-31T12:20:50;98681.59;;;14.61;82.68
16821;BME280;8527;49.740;6.604;2023-10-31T12:25:54;98681.16;;;14.39;81.77
16821;BME280;8527;49.740;6.604;2023-10-31T12:30:55;98685.72;;;14.13;82.11
16821;BME280;8527;49.740;6.604;2023-10-31T12:35:57;98689.94;;;14.21;81.86
16821;BME280;8527;49.740;6.604;2023-10-31T12:40:59;98695.25;;;14.02;82.45
16821;BME280;8527;49.740;6.604;2023-10-31T12:45:57;98693.00;;;14.25;82.08
16821;BME280;8527;49.740;6.604;2023-10-31T12:51:08;98697.47;;;14.31;81.98
16821;BME280;8527;49.740;6.604;2023-10-31T12:56:09;98700.41;;;14.23;82.46
16821;BME280;8527;49.740;6.604;2023-10-31T13:01:10;98695.63;;;14.31;82.40
16821;BME280;8527;49.740;6.604;2023-10-31T13:06:14;98697.75;;;14.48;81.69
16821;BME280;8527;49.740;6.604;2023-10-31T13:11:17;98693.44;;;14.21;82.94
16821;BME280;8527;49.740;6.604;2023-10-31T13:16:20;98702.16;;;14.35;83.15
16821;BME280;8527;49.740;6.604;2023-10-31T13:21:19;98688.72;;;14.24;81.90
16821;BME280;8527;49.740;6.604;2023-10-31T13:26:20;98691.03;;;14.39;81.97
16821;BME280;8527;49.740;6.604;2023-10-31T13:31:22;98695.59;;;14.57;82.16
16821;BME280;8527;49.740;6.604;2023-10-31T13:36:25;98689.88;;;14.53;81.01
16821;BME280;8527;49.740;6.604;2023-10-31T13:41:27;98699.59;;;14.66;81.98
16821;BME280;8527;49.740;6.604;2023-10-31T13:46:31;98716.56;;;14.53;82.91
16821;BME280;8527;49.740;6.604;2023-10-31T13:51:29;98718.63;;;14.51;81.85
16821;BME280;8527;49.740;6.604;2023-10-31T13:56:30;98721.13;;;14.46;81.82
16821;BME280;8527;49.740;6.604;2023-10-31T14:01:28;98711.59;;;14.57;82.45
16821;BME280;8527;49.740;6.604;2023-10-31T14:06:33;98720.00;;;14.35;82.81
16821;BME280;8527;49.740;6.604;2023-10-31T14:11:35;98712.28;;;14.27;84.12
16821;BME280;8527;49.740;6.604;2023-10-31T14:16:33;98718.41;;;14.02;86.32
16821;BME280;8527;49.740;6.604;2023-10-31T14:21:32;98712.59;;;13.86;88.11
16821;BME280;8527;49.740;6.604;2023-10-31T14:26:34;98728.72;;;13.98;87.81
16821;BME280;8527;49.740;6.604;2023-10-31T14:31:38;98737.22;;;14.14;86.43
16821;BME280;8527;49.740;6.604;2023-10-31T14:36:37;98735.69;;;13.99;88.03
16821;BME280;8527;49.740;6.604;2023-10-31T14:41:38;98750.84;;;13.99;89.00
16821;BME280;8527;49.740;6.604;2023-10-31T14:46:39;98740.84;;;13.94;89.54
16821;BME280;8527;49.740;6.604;2023-10-31T14:51:38;98741.13;;;13.86;89.13
16821;BME280;8527;49.740;6.604;2023-10-31T14:56:39;98745.22;;;13.82;88.59
16821;BME280;8527;49.740;6.604;2023-10-31T15:01:38;98750.88;;;13.67;88.62
16821;BME280;8527;49.740;6.604;2023-10-31T15:06:36;98770.97;;;13.62;88.42
16821;BME280;8527;49.740;6.604;2023-10-31T15:11:35;98774.00;;;13.73;89.73
16821;BME280;8527;49.740;6.604;2023-10-31T15:16:42;98777.53;;;13.67;90.10
16821;BME280;8527;49.740;6.604;2023-10-31T15:21:43;98776.09;;;13.64;91.77
16821;BME280;8527;49.740;6.604;2023-10-31T15:26:42;98778.56;;;13.66;91.42
16821;BME280;8527;49.740;6.604;2023-10-31T15:31:45;98780.22;;;13.60;91.84
16821;BME280;8527;49.740;6.604;2023-10-31T15:36:50;98788.28;;;13.46;96.30
16821;BME280;8527;49.740;6.604;2023-10-31T15:41:52;98799.38;;;13.23;99.19
16821;BME280;8527;49.740;6.604;2023-10-31T15:46:53;98809.28;;;13.02;100.00
16821;BME280;8527;49.740;6.604;2023-10-31T15:51:51;98819.28;;;13.00;99.73
16821;BME280;8527;49.740;6.604;2023-10-31T15:56:50;98827.72;;;12.90;100.00
16821;BME280;8527;49.740;6.604;2023-10-31T16:01:49;98825.47;;;12.80;100.00
16821;BME280;8527;49.740;6.604;2023-10-31T16:06:54;98832.44;;;12.75;100.00
16821;BME280;8527;49.740;6.604;2023-10-31T16:11:52;98835.28;;;12.73;100.00
16821;BME280;8527;49.740;6.604;2023-10-31T16:16:51;98836.72;;;12.83;100.00
16821;BME280;8527;49.740;6.604;2023-10-31T16:21:52;98840.00;;;12.71;100.00
16821;BME280;8527;49.740;6.604;2023-10-31T16:26:51;98844.13;;;12.67;100.00
16821;BME280;8527;49.740;6.604;2023-10-31T16:31:52;98845.75;;;12.61;100.00
16821;BME280;8527;49.740;6.604;2023-10-31T16:36:56;98857.81;;;12.64;100.00
16821;BME280;8527;49.740;6.604;2023-10-31T16:41:54;98862.75;;;12.54;100.00
16821;BME280;8527;49.740;6.604;2023-10-31T16:46:55;98872.78;;;12.51;100.00
16821;BME280;8527;49.740;6.604;2023-10-31T16:51:57;98873.75;;;12.44;100.00
16821;BME280;8527;49.740;6.604;2023-10-31T16:56:58;98883.78;;;12.35;100.00
16821;BME280;8527;49.740;6.604;2023-10-31T17:01:56;98889.09;;;12.35;100.00
16821;BME280;8527;49.740;6.604;2023-10-31T17:06:58;98901.38;;;12.36;100.00
16821;BME280;8527;49.740;6.604;2023-10-31T17:11:56;98902.38;;;12.35;100.00
16821;BME280;8527;49.740;6.604;2023-10-31T17:16:54;98907.28;;;12.31;100.00
16821;BME280;8527;49.740;6.604;2023-10-31T17:21:53;98911.41;;;12.34;100.00
16821;BME280;8527;49.740;6.604;2023-10-31T17:26:57;98916.09;;;12.25;100.00
16821;BME280;8527;49.740;6.604;2023-10-31T17:31:56;98930.41;;;12.24;100.00
16821;BME280;8527;49.740;6.604;2023-10-31T17:36:54;98936.28;;;12.13;100.00
16821;BME280;8527;49.740;6.604;2023-10-31T17:41:53;98938.31;;;12.04;100.00
16821;BME280;8527;49.740;6.604;2023-10-31T17:46:54;98953.97;;;11.99;100.00
16821;BME280;8527;49.740;6.604;2023-10-31T17:51:53;98963.56;;;11.93;100.00
16821;BME280;8527;49.740;6.604;2023-10-31T17:56:53;98975.47;;;11.97;100.00
16821;BME280;8527;49.740;6.604;2023-10-31T18:01:56;98973.53;;;11.84;100.00
16821;BME280;8527;49.740;6.604;2023-10-31T18:06:55;98966.19;;;11.86;100.00
16821;BME280;8527;49.740;6.604;2023-10-31T18:11:53;98968.06;;;11.92;100.00
16821;BME280;8527;49.740;6.604;2023-10-31T18:16:55;98981.09;;;11.80;100.00
16821;BME280;8527;49.740;6.604;2023-10-31T18:21:54;98978.19;;;11.75;100.00
16821;BME280;8527;49.740;6.604;2023-10-31T18:26:55;98986.75;;;11.71;100.00
16821;BME280;8527;49.740;6.604;2023-10-31T18:31:56;98994.50;;;11.65;100.00
16821;BME280;8527;49.740;6.604;2023-10-31T18:36:55;99007.56;;;11.67;100.00
16821;BME280;8527;49.740;6.604;2023-10-31T18:41:53;99009.88;;;11.70;100.00
16821;BME280;8527;49.740;6.604;2023-10-31T18:46:52;99003.22;;;11.59;100.00
16821;BME280;8527;49.740;6.604;2023-10-31T18:51:53;99008.53;;;11.59;100.00
16821;BME280;8527;49.740;6.604;2023-10-31T18:56:51;99014.47;;;11.61;100.00
16821;BME280;8527;49.740;6.604;2023-10-31T19:01:52;99019.56;;;11.56;100.00
16821;BME280;8527;49.740;6.604;2023-10-31T19:06:56;99009.56;;;11.58;100.00
16821;BME280;8527;49.740;6.604;2023-10-31T19:11:54;99014.31;;;11.63;100.00
16821;BME280;8527;49.740;6.604;2023-10-31T19:16:53;99000.63;;;11.66;100.00
16821;BME280;8527;49.740;6.604;2023-10-31T19:21:51;99002.16;;;11.53;100.00
16821;BME280;8527;49.740;6.604;2023-10-31T19:26:52;99004.69;;;11.62;100.00
16821;BME280;8527;49.740;6.604;2023-10-31T19:31:50;99015.31;;;11.62;100.00
16821;BME280;8527;49.740;6.604;2023-10-31T19:36:49;99018.38;;;11.59;100.00
16821;BME280;8527;49.740;6.604;2023-10-31T19:41:54;99014.69;;;11.60;100.00
16821;BME280;8527;49.740;6.604;2023-10-31T19:46:52;99012.88;;;11.67;100.00
16821;BME280;8527;49.740;6.604;2023-10-31T19:51:53;99021.44;;;11.62;100.00
16821;BME280;8527;49.740;6.604;2023-10-31T19:56:54;99013.91;;;11.66;100.00
16821;BME280;8527;49.740;6.604;2023-10-31T20:01:58;99011.47;;;11.64;100.00
16821;BME280;8527;49.740;6.604;2023-10-31T20:06:56;99015.97;;;11.71;100.00
16821;BME280;8527;49.740;6.604;2023-10-31T20:11:58;99019.03;;;11.67;100.00
16821;BME280;8527;49.740;6.604;2023-10-31T20:16:58;99021.47;;;11.69;100.00
16821;BME280;8527;49.740;6.604;2023-10-31T20:22:04;99025.38;;;11.66;100.00
16821;BME280;8527;49.740;6.604;2023-10-31T20:27:05;99023.94;;;11.71;100.00
16821;BME280;8527;49.740;6.604;2023-10-31T20:32:04;99015.13;;;11.63;100.00
16821;BME280;8527;49.740;6.604;2023-10-31T20:37:03;99006.31;;;11.63;100.00
16821;BME280;8527;49.740;6.604;2023-10-31T20:42:01;99011.28;;;11.73;100.00
16821;BME280;8527;49.740;6.604;2023-10-31T20:47:02;99012.09;;;11.66;100.00
16821;BME280;8527;49.740;6.604;2023-10-31T20:52:04;99004.28;;;11.65;100.00
16821;BME280;8527;49.740;6.604;2023-10-31T20:57:03;99009.59;;;11.65;100.00
16821;BME280;8527;49.740;6.604;2023-10-31T21:02:05;98999.56;;;11.60;100.00
16821;BME280;8527;49.740;6.604;2023-10-31T21:07:04;99012.22;;;11.58;100.00
16821;BME280;8527;49.740;6.604;2023-10-31T21:12:07;99005.50;;;11.62;100.00
16821;BME280;8527;49.740;6.604;2023-10-31T21:17:08;99006.16;;;11.64;100.00
16821;BME280;8527;49.740;6.604;2023-10-31T21:22:07;99006.56;;;11.68;100.00
16821;BME280;8527;49.740;6.604;2023-10-31T21:27:07;98997.53;;;11.62;100.00
16821;BME280;8527;49.740;6.604;2023-10-31T21:32:09;99002.88;;;11.69;100.00
16821;BME280;8527;49.740;6.604;2023-10-31T21:37:07;98997.56;;;11.69;100.00
16821;BME280;8527;49.740;6.604;2023-10-31T21:42:06;98993.03;;;11.63;100.00
16821;BME280;8527;49.740;6.604;2023-10-31T21:47:07;98986.53;;;11.65;100.00
16821;BME280;8527;49.740;6.604;2023-10-31T21:52:08;98991.22;;;11.63;100.00
16821;BME280;8527;49.740;6.604;2023-10-31T21:57:07;98980.16;;;11.60;100.00
16821;BME280;8527;49.740;6.604;2023-10-31T22:02:05;98975.28;;;11.63;100.00
16821;BME280;8527;49.740;6.604;2023-10-31T22:07:09;98981.00;;;11.67;100.00
16821;BME280;8527;49.740;6.604;2023-10-31T22:12:10;98975.94;;;11.72;100.00
16821;BME280;8527;49.740;6.604;2023-10-31T22:17:11;98975.47;;;11.62;100.00
16821;BME280;8527;49.740;6.604;2023-10-31T22:22:13;98983.03;;;11.65;100.00
16821;BME280;8527;49.740;6.604;2023-10-31T22:27:13;98976.09;;;11.64;100.00
16821;BME280;8527;49.740;6.604;2023-10-31T22:32:11;98977.53;;;11.66;100.00
16821;BME280;8527;49.740;6.604;2023-10-31T22:37:13;98976.47;;;11.61;100.00
16821;BME280;8527;49.740;6.604;2023-10-31T22:42:12;98973.88;;;11.67;100.00
16821;BME280;8527;49.740;6.604;2023-10-31T22:47:10;98964.44;;;11.65;100.00
16821;BME280;8527;49.740;6.604;2023-10-31T22:52:08;98970.78;;;11.64;100.00
16821;BME280;8527;49.740;6.604;2023-10-31T22:57:09;98970.16;;;11.62;100.00
16821;BME280;8527;49.740;6.604;2023-10-31T23:02:08;98973.88;;;11.67;100.00
16821;BME280;8527;49.740;6.604;2023-10-31T23:07:06;98968.78;;;11.73;100.00
16821;BME280;8527;49.740;6.604;2023-10-31T23:12:06;98959.81;;;11.80;100.00
16821;BME280;8527;49.740;6.604;2023-10-31T23:17:10;98961.84;;;11.78;100.00
16821;BME280;8527;49.740;6.604;2023-10-31T23:22:08;98966.13;;;11.73;100.00
16821;BME280;8527;49.740;6.604;2023-10-31T23:27:07;98963.25;;;11.67;100.00
16821;BME280;8527;49.740;6.604;2023-10-31T23:32:06;98968.56;;;11.67;100.00
16821;BME280;8527;49.740;6.604;2023-10-31T23:37:07;98973.28;;;11.72;100.00
16821;BME280;8527;49.740;6.604;2023-10-31T23:42:05;98972.06;;;11.75;100.00
16821;BME280;8527;49.740;6.604;2023-10-31T23:47:07;98963.47;;;11.73;100.00
16821;BME280;8527;49.740;6.604;2023-10-31T23:52:09;98966.91;;;11.66;100.00
16821;BME280;8527;49.740;6.604;2023-10-31T23:57:07;98963.81;;;11.63;100.00
